Terminal Aerodrome Forecast
Issued by NWS

Current Version | Previous Version | Graphics & Text | Print | Product List | Glossary On
Versions: 1 2 3 4 5 6 7 8 9 10 11 12 13 14 15 16
000
FTUS41 KRNK 141125
TAFLWB
TAF
KLWB 141125Z 1412/1512 20007KT P6SM SCT025 OVC050
     FM141400 19010KT P6SM -SHRA OVC035
     FM142200 18005KT P6SM OVC035
     FM150500 19008KT 4SM -SHRA OVC015=

USA.gov is the U.S. government's official web portal to all federal, state and local government web resources and services.